WFDK1: Walnut River, Winfield, KS

Data processed at Mon Jun 19 2017 23:05


All information presented herein is the property of the government of the United States of America and may be revised or deleted at any time without prior notice.
Dissemination of this information without the expressed written consent of the Public Affairs Office, Tulsa District U.S. Army Corps of Engineers is strictly prohibited.
These data are gathered electronically and, as presented, have not undergone any form of quality control. These data are not guaranteed to be valid or correct.
Go to home page.
Go to station list.
Go to home page.

Upstream stations:

Downstream station:
Previous Day
Next Day
Current Day
    
SHEF ID:       WFDK1     WALNUT R AT WINFIELD, KS
STATION TYPE:  

               PRECIP     STAGE  RIV-FLOW  BAT-LOAD
                   in        ft       cfs      volt
              Ccp-Rev   Ccp-Rev   Ccp-Rev   Ccp-Rev
(US/Central)
06/19 00:00      0.00      7.18      4320     12.49
06/19 01:00      0.00      7.14      4280     12.25
06/19 02:00      0.00      7.09      4240     12.41
06/19 03:00      0.00      7.00      4150     12.41
06/19 04:00      0.00      6.92      4070     12.41
06/19 05:00      0.00      6.83      3980     12.41
06/19 06:00      0.00      6.75      3900     12.41
06/19 07:00      0.00      6.68      3830     12.41
06/19 08:00      0.00      6.64      3790     12.33
06/19 09:00      0.00      6.60      3760     12.41
06/19 10:00      0.00      6.59      3750     12.65
06/19 11:00      0.00      6.58      3740     13.21
06/19 12:00      0.00      6.58      3740     13.21
06/19 13:00      0.00      6.56      3720     13.29
06/19 14:00      0.00      6.56      3720     13.21
06/19 15:00      0.00      6.56      3720     13.68
06/19 16:00      0.00      6.52      3680     13.44
06/19 17:00      0.00      6.47      3630     13.53
06/19 18:00      0.00      6.41      3570     13.29
06/19 19:00      0.00      6.35      3520     12.97
06/19 20:00      0.00      6.26      3430     12.81
06/19 21:00      0.00      6.18      3360     12.57
06/19 22:00      0.00      6.08      3270     12.57
06/19 23:00      ----      ----      ----      ----